sensor_id;sensor_type;location;lat;lon;timestamp;pressure;altitude;pressure_sealevel;temperature;humidity
44103;BME280;29769;42.178;24.742;2023-02-28T00:00:43;100166.41;;;8.60;100.00
44103;BME280;29769;42.178;24.742;2023-02-28T00:03:28;100167.28;;;8.61;100.00
44103;BME280;29769;42.178;24.742;2023-02-28T00:06:13;100162.91;;;8.61;100.00
44103;BME280;29769;42.178;24.742;2023-02-28T00:08:58;100169.91;;;8.65;100.00
44103;BME280;29769;42.178;24.742;2023-02-28T00:11:43;100169.91;;;8.70;100.00
44103;BME280;29769;42.178;24.742;2023-02-28T00:14:30;100176.91;;;8.74;100.00
44103;BME280;29769;42.178;24.742;2023-02-28T00:17:15;100163.78;;;8.60;100.00
44103;BME280;29769;42.178;24.742;2023-02-28T00:20:03;100179.53;;;8.66;100.00
44103;BME280;29769;42.178;24.742;2023-02-28T00:22:53;100172.53;;;8.58;100.00
44103;BME280;29769;42.178;24.742;2023-02-28T00:25:38;100169.03;;;8.46;100.00
44103;BME280;29769;42.178;24.742;2023-02-28T00:28:24;100163.75;;;8.40;100.00
44103;BME280;29769;42.178;24.742;2023-02-28T00:31:09;100169.00;;;8.37;100.00
44103;BME280;29769;42.178;24.742;2023-02-28T00:33:54;100169.91;;;8.42;100.00
44103;BME280;29769;42.178;24.742;2023-02-28T00:36:39;100173.41;;;8.52;100.00
44103;BME280;29769;42.178;24.742;2023-02-28T00:39:25;100163.78;;;8.59;100.00
44103;BME280;29769;42.178;24.742;2023-02-28T00:42:10;100159.41;;;8.55;100.00
44103;BME280;29769;42.178;24.742;2023-02-28T00:44:54;100155.06;;;8.63;100.00
44103;BME280;29769;42.178;24.742;2023-02-28T00:47:40;100160.28;;;8.57;100.00
44103;BME280;29769;42.178;24.742;2023-02-28T00:50:24;100159.44;;;8.58;100.00
44103;BME280;29769;42.178;24.742;2023-02-28T00:53:09;100157.69;;;8.63;100.00
44103;BME280;29769;42.178;24.742;2023-02-28T00:55:54;100161.19;;;8.62;100.00
44103;BME280;29769;42.178;24.742;2023-02-28T00:58:39;100160.28;;;8.70;100.00
44103;BME280;29769;42.178;24.742;2023-02-28T01:01:24;100165.53;;;8.82;100.00
44103;BME280;29769;42.178;24.742;2023-02-28T01:04:09;100169.03;;;8.87;100.00
44103;BME280;29769;42.178;24.742;2023-02-28T01:06:54;100169.88;;;8.96;100.00
44103;BME280;29769;42.178;24.742;2023-02-28T01:09:38;100168.16;;;8.98;100.00
44103;BME280;29769;42.178;24.742;2023-02-28T01:12:23;100156.75;;;8.96;100.00
44103;BME280;29769;42.178;24.742;2023-02-28T01:15:10;100182.13;;;9.12;100.00
44103;BME280;29769;42.178;24.742;2023-02-28T01:17:56;100184.72;;;9.21;100.00
44103;BME280;29769;42.178;24.742;2023-02-28T01:20:41;100193.47;;;9.21;100.00
44103;BME280;29769;42.178;24.742;2023-02-28T01:23:27;100203.09;;;9.25;100.00
44103;BME280;29769;42.178;24.742;2023-02-28T01:26:17;100196.09;;;9.26;100.00
44103;BME280;29769;42.178;24.742;2023-02-28T01:29:03;100191.72;;;9.25;100.00
44103;BME280;29769;42.178;24.742;2023-02-28T01:31:48;100077.25;;;8.56;100.00
44103;BME280;29769;42.178;24.742;2023-02-28T01:34:32;100184.69;;;9.27;100.00
44103;BME280;29769;42.178;24.742;2023-02-28T01:37:17;100192.56;;;9.36;100.00
44103;BME280;29769;42.178;24.742;2023-02-28T01:40:03;100204.81;;;9.40;100.00
44103;BME280;29769;42.178;24.742;2023-02-28T01:42:47;100207.41;;;9.52;100.00
44103;BME280;29769;42.178;24.742;2023-02-28T01:45:34;100199.56;;;9.45;100.00
44103;BME280;29769;42.178;24.742;2023-02-28T01:48:26;100229.28;;;9.62;100.00
44103;BME280;29769;42.178;24.742;2023-02-28T01:51:19;100234.50;;;9.69;100.00
44103;BME280;29769;42.178;24.742;2023-02-28T01:54:09;100238.84;;;9.79;100.00
44103;BME280;29769;42.178;24.742;2023-02-28T01:57:01;100239.63;;;10.03;100.00
44103;BME280;29769;42.178;24.742;2023-02-28T01:59:58;100236.94;;;10.09;100.00
44103;BME280;29769;42.178;24.742;2023-02-28T02:02:47;100248.38;;;10.06;100.00
44103;BME280;29769;42.178;24.742;2023-02-28T02:05:34;100252.81;;;9.94;100.00
44103;BME280;29769;42.178;24.742;2023-02-28T02:08:26;100259.00;;;9.74;100.00
44103;BME280;29769;42.178;24.742;2023-02-28T02:11:13;100263.41;;;9.59;100.00
44103;BME280;29769;42.178;24.742;2023-02-28T02:17:34;100249.38;;;9.70;100.00
44103;BME280;29769;42.178;24.742;2023-02-28T02:20:50;100260.72;;;9.80;100.00
44103;BME280;29769;42.178;24.742;2023-02-28T02:23:49;100254.59;;;9.84;100.00
44103;BME280;29769;42.178;24.742;2023-02-28T02:36:26;100256.41;;;9.67;100.00
44103;BME280;29769;42.178;24.742;2023-02-28T02:39:19;100269.53;;;9.59;100.00
44103;BME280;29769;42.178;24.742;2023-02-28T02:42:14;100272.16;;;9.50;100.00
44103;BME280;29769;42.178;24.742;2023-02-28T02:45:05;100266.06;;;9.42;100.00
44103;BME280;29769;42.178;24.742;2023-02-28T02:47:51;100241.59;;;9.20;100.00
44103;BME280;29769;42.178;24.742;2023-02-28T02:50:38;100269.56;;;9.27;100.00
44103;BME280;29769;42.178;24.742;2023-02-28T02:53:29;100258.22;;;9.12;100.00
44103;BME280;29769;42.178;24.742;2023-02-28T02:56:19;100267.88;;;9.13;100.00
44103;BME280;29769;42.178;24.742;2023-02-28T02:59:08;100280.09;;;9.15;100.00
44103;BME280;29769;42.178;24.742;2023-02-28T03:01:59;100279.22;;;9.06;100.00
44103;BME280;29769;42.178;24.742;2023-02-28T03:04:58;100301.09;;;9.11;100.00
44103;BME280;29769;42.178;24.742;2023-02-28T03:07:47;100299.34;;;9.05;100.00
44103;BME280;29769;42.178;24.742;2023-02-28T03:10:34;100299.34;;;9.10;100.00
44103;BME280;29769;42.178;24.742;2023-02-28T03:23:23;100323.81;;;9.06;100.00
44103;BME280;29769;42.178;24.742;2023-02-28T03:26:18;100320.31;;;9.01;100.00
44103;BME280;29769;42.178;24.742;2023-02-28T03:29:10;100319.44;;;8.96;100.00
44103;BME280;29769;42.178;24.742;2023-02-28T03:32:03;100320.31;;;8.91;100.00
44103;BME280;29769;42.178;24.742;2023-02-28T03:34:59;100328.22;;;8.95;100.00
44103;BME280;29769;42.178;24.742;2023-02-28T03:37:53;100324.72;;;8.99;100.00
44103;BME280;29769;42.178;24.742;2023-02-28T03:40:43;100326.47;;;9.03;100.00
44103;BME280;29769;42.178;24.742;2023-02-28T03:43:36;100329.94;;;9.05;100.00
44103;BME280;29769;42.178;24.742;2023-02-28T03:46:26;100338.72;;;9.07;100.00
44103;BME280;29769;42.178;24.742;2023-02-28T03:49:23;100341.31;;;9.10;100.00
44103;BME280;29769;42.178;24.742;2023-02-28T03:52:09;100336.97;;;9.10;100.00
44103;BME280;29769;42.178;24.742;2023-02-28T03:55:00;100329.94;;;9.05;100.00
44103;BME280;29769;42.178;24.742;2023-02-28T03:58:01;100344.81;;;9.10;100.00
44103;BME280;29769;42.178;24.742;2023-02-28T04:00:55;100348.31;;;9.09;100.00
44103;BME280;29769;42.178;24.742;2023-02-28T04:03:42;100333.44;;;8.91;100.00
44103;BME280;29769;42.178;24.742;2023-02-28T04:06:27;100350.94;;;8.96;100.00
44103;BME280;29769;42.178;24.742;2023-02-28T04:09:15;100343.91;;;8.84;100.00
44103;BME280;29769;42.178;24.742;2023-02-28T04:12:00;100353.53;;;8.83;100.00
44103;BME280;29769;42.178;24.742;2023-02-28T04:14:45;100369.31;;;8.89;100.00
44103;BME280;29769;42.178;24.742;2023-02-28T04:17:30;100354.41;;;8.75;100.00
44103;BME280;29769;42.178;24.742;2023-02-28T04:20:15;100384.13;;;8.81;100.00
44103;BME280;29769;42.178;24.742;2023-02-28T04:23:00;100371.88;;;8.74;100.00
44103;BME280;29769;42.178;24.742;2023-02-28T04:25:44;100380.63;;;8.76;100.00
44103;BME280;29769;42.178;24.742;2023-02-28T04:28:29;100374.47;;;8.73;100.00
44103;BME280;29769;42.178;24.742;2023-02-28T04:31:14;100379.72;;;8.70;100.00
44103;BME280;29769;42.178;24.742;2023-02-28T04:33:59;100369.22;;;8.58;100.00
44103;BME280;29769;42.178;24.742;2023-02-28T04:36:44;100379.72;;;8.62;100.00
44103;BME280;29769;42.178;24.742;2023-02-28T04:39:35;100370.94;;;8.63;100.00
44103;BME280;29769;42.178;24.742;2023-02-28T04:42:20;100364.81;;;8.55;100.00
44103;BME280;29769;42.178;24.742;2023-02-28T04:45:05;100372.69;;;8.55;100.00
44103;BME280;29769;42.178;24.742;2023-02-28T04:47:50;100372.69;;;8.55;100.00
44103;BME280;29769;42.178;24.742;2023-02-28T04:50:35;100386.66;;;8.53;100.00
44103;BME280;29769;42.178;24.742;2023-02-28T04:53:20;100382.28;;;8.55;100.00
44103;BME280;29769;42.178;24.742;2023-02-28T04:56:07;100386.66;;;8.56;100.00
44103;BME280;29769;42.178;24.742;2023-02-28T04:58:51;100379.69;;;8.58;100.00
44103;BME280;29769;42.178;24.742;2023-02-28T05:01:37;100381.44;;;8.60;100.00
44103;BME280;29769;42.178;24.742;2023-02-28T05:04:22;100397.19;;;8.60;100.00
44103;BME280;29769;42.178;24.742;2023-02-28T05:07:07;100397.13;;;8.51;100.00
44103;BME280;29769;42.178;24.742;2023-02-28T05:09:52;100405.91;;;8.53;100.00
44103;BME280;29769;42.178;24.742;2023-02-28T05:12:37;100405.00;;;8.51;100.00
44103;BME280;29769;42.178;24.742;2023-02-28T05:15:23;100411.13;;;8.52;100.00
44103;BME280;29769;42.178;24.742;2023-02-28T05:18:08;100403.19;;;8.41;100.00
44103;BME280;29769;42.178;24.742;2023-02-28T05:20:53;100388.25;;;8.28;100.00
44103;BME280;29769;42.178;24.742;2023-02-28T05:23:38;100410.22;;;8.45;100.00
44103;BME280;29769;42.178;24.742;2023-02-28T05:26:23;100416.34;;;8.44;100.00
44103;BME280;29769;42.178;24.742;2023-02-28T05:29:09;100421.59;;;8.47;100.00
44103;BME280;29769;42.178;24.742;2023-02-28T05:31:54;100432.13;;;8.53;100.00
44103;BME280;29769;42.178;24.742;2023-02-28T05:34:39;100413.72;;;8.47;100.00
44103;BME280;29769;42.178;24.742;2023-02-28T05:37:24;100440.84;;;8.55;100.00
44103;BME280;29769;42.178;24.742;2023-02-28T05:40:09;100439.09;;;8.51;100.00
44103;BME280;29769;42.178;24.742;2023-02-28T05:42:54;100450.47;;;8.55;100.00
44103;BME280;29769;42.178;24.742;2023-02-28T05:45:39;100452.25;;;8.62;100.00
44103;BME280;29769;42.178;24.742;2023-02-28T05:48:24;100442.63;;;8.56;100.00
44103;BME280;29769;42.178;24.742;2023-02-28T05:51:10;100456.63;;;8.61;100.00
44103;BME280;29769;42.178;24.742;2023-02-28T05:53:58;100446.13;;;8.57;100.00
44103;BME280;29769;42.178;24.742;2023-02-28T05:56:43;100445.22;;;8.55;100.00
44103;BME280;29769;42.178;24.742;2023-02-28T05:59:29;100451.41;;;8.63;100.00
44103;BME280;29769;42.178;24.742;2023-02-28T06:02:17;100447.88;;;8.64;100.00
44103;BME280;29769;42.178;24.742;2023-02-28T06:05:02;100456.66;;;8.66;100.00
44103;BME280;29769;42.178;24.742;2023-02-28T06:07:47;100458.41;;;8.70;100.00
44103;BME280;29769;42.178;24.742;2023-02-28T06:10:31;100463.69;;;8.76;100.00
44103;BME280;29769;42.178;24.742;2023-02-28T06:13:16;100468.09;;;8.84;100.00
44103;BME280;29769;42.178;24.742;2023-02-28T06:16:01;100461.13;;;8.96;100.00
44103;BME280;29769;42.178;24.742;2023-02-28T06:18:46;100461.13;;;8.91;100.00
44103;BME280;29769;42.178;24.742;2023-02-28T06:21:31;100471.59;;;8.88;100.00
44103;BME280;29769;42.178;24.742;2023-02-28T06:24:15;100476.84;;;8.83;100.00
44103;BME280;29769;42.178;24.742;2023-02-28T06:27:00;100475.16;;;8.95;100.00
44103;BME280;29769;42.178;24.742;2023-02-28T06:29:53;100478.66;;;9.06;100.00
44103;BME280;29769;42.178;24.742;2023-02-28T06:32:39;100476.81;;;8.82;100.00
44103;BME280;29769;42.178;24.742;2023-02-28T06:35:24;100467.25;;;8.85;100.00
44103;BME280;29769;42.178;24.742;2023-02-28T06:38:09;100485.59;;;8.81;100.00
44103;BME280;29769;42.178;24.742;2023-02-28T06:40:56;100481.19;;;8.75;100.00
44103;BME280;29769;42.178;24.742;2023-02-28T06:43:41;100489.06;;;8.80;100.00
44103;BME280;29769;42.178;24.742;2023-02-28T06:46:26;100485.59;;;8.88;100.00
44103;BME280;29769;42.178;24.742;2023-02-28T06:49:11;100478.50;;;8.66;100.00
44103;BME280;29769;42.178;24.742;2023-02-28T06:51:56;100484.66;;;8.73;100.00
44103;BME280;29769;42.178;24.742;2023-02-28T06:54:41;100490.78;;;8.78;100.00
44103;BME280;29769;42.178;24.742;2023-02-28T06:57:30;100498.69;;;8.76;100.00
44103;BME280;29769;42.178;24.742;2023-02-28T07:00:17;100493.50;;;8.93;100.00
44103;BME280;29769;42.178;24.742;2023-02-28T07:03:02;100508.44;;;9.08;100.00
44103;BME280;29769;42.178;24.742;2023-02-28T07:05:47;100504.88;;;9.01;100.00
44103;BME280;29769;42.178;24.742;2023-02-28T07:08:33;100508.44;;;9.08;100.00
44103;BME280;29769;42.178;24.742;2023-02-28T07:11:18;100501.44;;;9.16;100.00
44103;BME280;29769;42.178;24.742;2023-02-28T07:14:03;100499.66;;;9.03;100.00
44103;BME280;29769;42.178;24.742;2023-02-28T07:16:48;100502.28;;;9.01;100.00
44103;BME280;29769;42.178;24.742;2023-02-28T07:19:34;100503.16;;;9.02;100.00
44103;BME280;29769;42.178;24.742;2023-02-28T07:22:19;100503.19;;;9.08;100.00
44103;BME280;29769;42.178;24.742;2023-02-28T07:25:05;100498.81;;;9.16;100.00
44103;BME280;29769;42.178;24.742;2023-02-28T07:27:52;100504.06;;;9.08;100.00
44103;BME280;29769;42.178;24.742;2023-02-28T07:30:37;100508.41;;;9.03;100.00
44103;BME280;29769;42.178;24.742;2023-02-28T07:33:22;100521.56;;;9.11;100.00
44103;BME280;29769;42.178;24.742;2023-02-28T07:36:11;100517.19;;;9.08;100.00
44103;BME280;29769;42.178;24.742;2023-02-28T07:38:59;100529.38;;;8.97;100.00
44103;BME280;29769;42.178;24.742;2023-02-28T07:41:44;100529.34;;;8.96;100.00
44103;BME280;29769;42.178;24.742;2023-02-28T07:44:29;100525.81;;;8.84;100.00
44103;BME280;29769;42.178;24.742;2023-02-28T07:47:14;100522.31;;;8.81;100.00
44103;BME280;29769;42.178;24.742;2023-02-28T07:49:59;100518.84;;;8.85;100.00
44103;BME280;29769;42.178;24.742;2023-02-28T07:52:44;100519.69;;;8.87;100.00
44103;BME280;29769;42.178;24.742;2023-02-28T07:55:28;100518.84;;;8.89;100.00
44103;BME280;29769;42.178;24.742;2023-02-28T07:58:13;100526.75;;;8.97;100.00
44103;BME280;29769;42.178;24.742;2023-02-28T08:01:08;100524.09;;;8.91;100.00
44103;BME280;29769;42.178;24.742;2023-02-28T08:03:54;100514.44;;;8.81;100.00
44103;BME280;29769;42.178;24.742;2023-02-28T08:06:39;100525.00;;;8.95;100.00
44103;BME280;29769;42.178;24.742;2023-02-28T08:09:24;100524.06;;;8.85;100.00
44103;BME280;29769;42.178;24.742;2023-02-28T08:12:11;100528.44;;;8.86;100.00
44103;BME280;29769;42.178;24.742;2023-02-28T08:14:55;100537.13;;;8.74;100.00
44103;BME280;29769;42.178;24.742;2023-02-28T08:17:40;100528.31;;;8.63;100.00
44103;BME280;29769;42.178;24.742;2023-02-28T08:20:26;100532.69;;;8.64;100.00
44103;BME280;29769;42.178;24.742;2023-02-28T08:23:11;100524.81;;;8.61;100.00
44103;BME280;29769;42.178;24.742;2023-02-28T08:25:56;100525.72;;;8.72;100.00
44103;BME280;29769;42.178;24.742;2023-02-28T08:28:41;100530.25;;;8.95;100.00
44103;BME280;29769;42.178;24.742;2023-02-28T08:31:26;100534.56;;;8.85;100.00
44103;BME280;29769;42.178;24.742;2023-02-28T08:34:12;100524.13;;;8.99;100.00
44103;BME280;29769;42.178;24.742;2023-02-28T08:36:57;100522.44;;;9.13;100.00
44103;BME280;29769;42.178;24.742;2023-02-28T08:39:42;100532.09;;;9.20;100.00
44103;BME280;29769;42.178;24.742;2023-02-28T08:42:27;100531.25;;;9.33;100.00
44103;BME280;29769;42.178;24.742;2023-02-28T08:45:13;100531.25;;;9.36;100.00
44103;BME280;29769;42.178;24.742;2023-02-28T08:47:58;100539.13;;;9.41;100.00
44103;BME280;29769;42.178;24.742;2023-02-28T08:50:43;100542.63;;;9.32;100.00
44103;BME280;29769;42.178;24.742;2023-02-28T08:53:28;100542.72;;;9.58;100.00
44103;BME280;29769;42.178;24.742;2023-02-28T08:56:13;100537.41;;;9.50;100.00
44103;BME280;29769;42.178;24.742;2023-02-28T08:58:58;100543.47;;;9.17;100.00
44103;BME280;29769;42.178;24.742;2023-02-28T09:01:43;100538.19;;;9.16;100.00
44103;BME280;29769;42.178;24.742;2023-02-28T09:04:28;100544.34;;;9.24;100.00
44103;BME280;29769;42.178;24.742;2023-02-28T09:07:15;100547.03;;;9.34;100.00
44103;BME280;29769;42.178;24.742;2023-02-28T09:10:00;100540.00;;;9.32;100.00
44103;BME280;29769;42.178;24.742;2023-02-28T09:12:45;100540.94;;;9.49;100.00
44103;BME280;29769;42.178;24.742;2023-02-28T09:15:31;100545.28;;;9.35;100.00
44103;BME280;29769;42.178;24.742;2023-02-28T09:18:16;100548.75;;;9.28;100.00
44103;BME280;29769;42.178;24.742;2023-02-28T09:21:03;100544.41;;;9.37;100.00
44103;BME280;29769;42.178;24.742;2023-02-28T09:23:50;100526.91;;;9.41;100.00
44103;BME280;29769;42.178;24.742;2023-02-28T09:26:35;100534.78;;;9.38;100.00
44103;BME280;29769;42.178;24.742;2023-02-28T09:29:19;100528.59;;;9.24;100.00
44103;BME280;29769;42.178;24.742;2023-02-28T09:32:05;100534.75;;;9.26;100.00
44103;BME280;29769;42.178;24.742;2023-02-28T09:34:50;100523.38;;;9.36;100.00
44103;BME280;29769;42.178;24.742;2023-02-28T09:37:35;100522.56;;;9.49;100.00
44103;BME280;29769;42.178;24.742;2023-02-28T09:40:22;100516.44;;;9.65;100.00
44103;BME280;29769;42.178;24.742;2023-02-28T09:43:12;100520.81;;;9.48;100.00
44103;BME280;29769;42.178;24.742;2023-02-28T09:46:05;100519.06;;;9.68;100.00
44103;BME280;29769;42.178;24.742;2023-02-28T09:48:53;100528.75;;;9.80;100.00
44103;BME280;29769;42.178;24.742;2023-02-28T09:52:00;100527.81;;;9.60;100.00
44103;BME280;29769;42.178;24.742;2023-02-28T09:54:46;100522.59;;;9.73;100.00
44103;BME280;29769;42.178;24.742;2023-02-28T09:57:37;100526.06;;;9.48;100.00
44103;BME280;29769;42.178;24.742;2023-02-28T10:00:34;100505.91;;;9.44;100.00
44103;BME280;29769;42.178;24.742;2023-02-28T10:03:31;100503.28;;;9.40;100.00
44103;BME280;29769;42.178;24.742;2023-02-28T10:06:28;100496.28;;;9.46;100.00
44103;BME280;29769;42.178;24.742;2023-02-28T10:09:19;100480.53;;;9.69;100.00
44103;BME280;29769;42.178;24.742;2023-02-28T10:12:09;100489.31;;;9.78;100.00
44103;BME280;29769;42.178;24.742;2023-02-28T10:14:56;100484.06;;;9.66;100.00
44103;BME280;29769;42.178;24.742;2023-02-28T10:17:47;100467.41;;;9.60;100.00
44103;BME280;29769;42.178;24.742;2023-02-28T10:20:37;100490.16;;;9.52;100.00
44103;BME280;29769;42.178;24.742;2023-02-28T10:23:27;100474.41;;;9.59;100.00
44103;BME280;29769;42.178;24.742;2023-02-28T10:26:14;100491.06;;;9.87;100.00
44103;BME280;29769;42.178;24.742;2023-02-28T10:29:03;100481.41;;;9.65;100.00
44103;BME280;29769;42.178;24.742;2023-02-28T10:31:48;100470.06;;;9.70;100.00
44103;BME280;29769;42.178;24.742;2023-02-28T10:34:32;100464.78;;;9.73;100.00
44103;BME280;29769;42.178;24.742;2023-02-28T10:37:17;100469.16;;;9.58;100.00
44103;BME280;29769;42.178;24.742;2023-02-28T10:46:02;100470.91;;;9.65;100.00
44103;BME280;29769;42.178;24.742;2023-02-28T10:49:00;100482.28;;;9.56;100.00
44103;BME280;29769;42.178;24.742;2023-02-28T10:51:46;100473.53;;;9.51;100.00
44103;BME280;29769;42.178;24.742;2023-02-28T10:54:35;100469.16;;;9.58;100.00
44103;BME280;29769;42.178;24.742;2023-02-28T10:57:23;100464.75;;;9.34;100.00
44103;BME280;29769;42.178;24.742;2023-02-28T11:00:22;100463.03;;;9.56;100.00
44103;BME280;29769;42.178;24.742;2023-02-28T11:03:25;100459.56;;;9.76;100.00
44103;BME280;29769;42.178;24.742;2023-02-28T11:06:16;100455.13;;;9.68;100.00
44103;BME280;29769;42.178;24.742;2023-02-28T11:09:18;100462.13;;;9.42;100.00
44103;BME280;29769;42.178;24.742;2023-02-28T11:12:08;100453.38;;;9.33;100.00
44103;BME280;29769;42.178;24.742;2023-02-28T11:15:06;100439.31;;;9.18;100.00
44103;BME280;29769;42.178;24.742;2023-02-28T11:20:59;100454.25;;;9.34;100.00
44103;BME280;29769;42.178;24.742;2023-02-28T11:23:47;100452.44;;;9.15;100.00
44103;BME280;29769;42.178;24.742;2023-02-28T11:26:45;100443.69;;;9.08;100.00
44103;BME280;29769;42.178;24.742;2023-02-28T11:29:31;100441.88;;;8.87;100.00
44103;BME280;29769;42.178;24.742;2023-02-28T11:32:21;100440.91;;;8.63;100.00
44103;BME280;29769;42.178;24.742;2023-02-28T11:37:54;100433.03;;;8.64;100.00
44103;BME280;29769;42.178;24.742;2023-02-28T11:40:59;100446.19;;;8.70;100.00
44103;BME280;29769;42.178;24.742;2023-02-28T11:52:56;100432.97;;;8.49;100.00
44103;BME280;29769;42.178;24.742;2023-02-28T11:55:45;100433.84;;;8.51;100.00
44103;BME280;29769;42.178;24.742;2023-02-28T12:10:42;100426.81;;;8.42;100.00
44103;BME280;29769;42.178;24.742;2023-02-28T12:16:43;100428.63;;;8.59;100.00
44103;BME280;29769;42.178;24.742;2023-02-28T12:22:49;100424.25;;;8.59;100.00
44103;BME280;29769;42.178;24.742;2023-02-28T12:28:43;100431.22;;;8.48;100.00
44103;BME280;29769;42.178;24.742;2023-02-28T12:31:35;100428.63;;;8.53;100.00
44103;BME280;29769;42.178;24.742;2023-02-28T12:34:52;100400.59;;;8.39;100.00
44103;BME280;29769;42.178;24.742;2023-02-28T12:38:25;100408.53;;;8.53;100.00
44103;BME280;29769;42.178;24.742;2023-02-28T12:41:03;100411.13;;;8.50;100.00
44103;BME280;29769;42.178;24.742;2023-02-28T12:44:02;100407.59;;;8.49;100.00
44103;BME280;29769;42.178;24.742;2023-02-28T12:46:52;100400.63;;;8.47;100.00
44103;BME280;29769;42.178;24.742;2023-02-28T12:58:44;100409.38;;;8.47;100.00
44103;BME280;29769;42.178;24.742;2023-02-28T13:04:42;100411.03;;;8.33;100.00
44103;BME280;29769;42.178;24.742;2023-02-28T13:07:46;100387.34;;;8.23;100.00
44103;BME280;29769;42.178;24.742;2023-02-28T13:10:44;100399.72;;;8.39;100.00
44103;BME280;29769;42.178;24.742;2023-02-28T13:13:30;100391.00;;;8.43;100.00
44103;BME280;29769;42.178;24.742;2023-02-28T13:16:16;100404.13;;;8.52;100.00
44103;BME280;29769;42.178;24.742;2023-02-28T13:19:09;100391.91;;;8.54;100.00
44103;BME280;29769;42.178;24.742;2023-02-28T13:21:56;100400.66;;;8.53;100.00
44103;BME280;29769;42.178;24.742;2023-02-28T13:24:47;100402.34;;;8.39;100.00
44103;BME280;29769;42.178;24.742;2023-02-28T13:27:38;100406.69;;;8.38;100.00
44103;BME280;29769;42.178;24.742;2023-02-28T13:36:33;100394.50;;;8.48;100.00
44103;BME280;29769;42.178;24.742;2023-02-28T13:45:25;100393.59;;;8.35;100.00
44103;BME280;29769;42.178;24.742;2023-02-28T13:48:19;100388.28;;;8.26;100.00
44103;BME280;29769;42.178;24.742;2023-02-28T13:51:47;100396.19;;;8.32;100.00
44103;BME280;29769;42.178;24.742;2023-02-28T13:58:03;100386.50;;;8.25;100.00
44103;BME280;29769;42.178;24.742;2023-02-28T14:04:12;100398.84;;;8.38;100.00
44103;BME280;29769;42.178;24.742;2023-02-28T14:07:00;100396.19;;;8.37;100.00
44103;BME280;29769;42.178;24.742;2023-02-28T14:09:54;100397.06;;;8.34;100.00
44103;BME280;29769;42.178;24.742;2023-02-28T14:12:53;100401.47;;;8.40;100.00
44103;BME280;29769;42.178;24.742;2023-02-28T14:15:49;100397.06;;;8.37;100.00
44103;BME280;29769;42.178;24.742;2023-02-28T14:18:49;100405.72;;;8.27;100.00
44103;BME280;29769;42.178;24.742;2023-02-28T14:21:38;100408.41;;;8.30;100.00
44103;BME280;29769;42.178;24.742;2023-02-28T14:31:16;100398.78;;;8.29;100.00
44103;BME280;29769;42.178;24.742;2023-02-28T14:36:49;100406.66;;;8.32;100.00
44103;BME280;29769;42.178;24.742;2023-02-28T14:39:41;100407.53;;;8.33;100.00
44103;BME280;29769;42.178;24.742;2023-02-28T14:42:33;100403.19;;;8.35;100.00
44103;BME280;29769;42.178;24.742;2023-02-28T14:45:22;100410.19;;;8.34;100.00
44103;BME280;29769;42.178;24.742;2023-02-28T14:48:09;100391.78;;;8.31;100.00
44103;BME280;29769;42.178;24.742;2023-02-28T14:50:59;100402.34;;;8.42;100.00
44103;BME280;29769;42.178;24.742;2023-02-28T14:53:48;100408.44;;;8.41;100.00
44103;BME280;29769;42.178;24.742;2023-02-28T14:56:38;100381.22;;;8.16;100.00
44103;BME280;29769;42.178;24.742;2023-02-28T14:59:29;100410.16;;;8.36;100.00
44103;BME280;29769;42.178;24.742;2023-02-28T15:02:22;100417.22;;;8.44;100.00
44103;BME280;29769;42.178;24.742;2023-02-28T15:05:31;100411.03;;;8.33;100.00
44103;BME280;29769;42.178;24.742;2023-02-28T15:08:17;100425.06;;;8.38;100.00
44103;BME280;29769;42.178;24.742;2023-02-28T15:11:05;100425.91;;;8.37;100.00
44103;BME280;29769;42.178;24.742;2023-02-28T15:13:53;100426.78;;;8.35;100.00
44103;BME280;29769;42.178;24.742;2023-02-28T15:16:41;100410.97;;;8.29;100.00
44103;BME280;29769;42.178;24.742;2023-02-28T15:19:34;100412.78;;;8.30;100.00
44103;BME280;29769;42.178;24.742;2023-02-28T15:22:31;100437.28;;;8.41;100.00
44103;BME280;29769;42.178;24.742;2023-02-28T15:25:21;100425.03;;;8.31;100.00
44103;BME280;29769;42.178;24.742;2023-02-28T15:28:12;100442.50;;;8.33;100.00
44103;BME280;29769;42.178;24.742;2023-02-28T15:31:01;100440.63;;;8.19;100.00
44103;BME280;29769;42.178;24.742;2023-02-28T15:33:57;100444.09;;;8.12;100.00
44103;BME280;29769;42.178;24.742;2023-02-28T15:36:42;100445.78;;;8.07;100.00
44103;BME280;29769;42.178;24.742;2023-02-28T15:39:28;100444.03;;;8.02;100.00
44103;BME280;29769;42.178;24.742;2023-02-28T15:42:19;100439.63;;;8.01;100.00
44103;BME280;29769;42.178;24.742;2023-02-28T15:45:04;100448.31;;;7.93;100.00
44103;BME280;29769;42.178;24.742;2023-02-28T15:47:50;100450.91;;;7.91;100.00
44103;BME280;29769;42.178;24.742;2023-02-28T15:50:35;100450.88;;;7.87;100.00
44103;BME280;29769;42.178;24.742;2023-02-28T15:53:22;100451.72;;;7.80;100.00
44103;BME280;29769;42.178;24.742;2023-02-28T15:56:22;100430.63;;;7.65;100.00
44103;BME280;29769;42.178;24.742;2023-02-28T15:59:13;100459.50;;;7.71;100.00
44103;BME280;29769;42.178;24.742;2023-02-28T16:02:11;100460.34;;;7.70;100.00
44103;BME280;29769;42.178;24.742;2023-02-28T16:07:45;100462.13;;;7.74;100.00
44103;BME280;29769;42.178;24.742;2023-02-28T16:10:29;100459.50;;;7.71;100.00
44103;BME280;29769;42.178;24.742;2023-02-28T16:13:14;100468.25;;;7.74;100.00
44103;BME280;29769;42.178;24.742;2023-02-28T16:16:01;100465.56;;;7.68;100.00
44103;BME280;29769;42.178;24.742;2023-02-28T16:18:46;100470.81;;;7.68;100.00